Time;durP1;ratioP1;P1;durP2;ratioP2;P2;SDS_P1;SDS_P2;PMS_P1;PMS_P2;Temp;Humidity;BMP_temperature;BMP_pressure;BME280_temperature;BME280_humidity;BME280_pressure;Samples;Min_cycle;Max_cycle;Signal;HPM_P1;HPM_P2
2022/10/10 00:04:57;;;;;;;9.90;8.97;;;14.30;99.90;;;;;;10416052;28;20230;-79
2022/10/10 00:10:09;;;;;;;8.97;7.73;;;14.30;99.90;;;;;;10422191;28;20198;-78
2022/10/10 00:15:12;;;;;;;8.17;7.57;;;14.30;99.90;;;;;;10416039;28;20202;-79
2022/10/10 00:20:18;;;;;;;9.20;8.30;;;14.30;99.90;;;;;;10414326;28;20198;-78
2022/10/10 00:25:20;;;;;;;9.40;8.47;;;14.30;99.90;;;;;;10413559;28;20237;-79
2022/10/10 00:30:23;;;;;;;9.17;8.37;;;14.40;99.90;;;;;;10396397;28;20268;-80
2022/10/10 00:35:27;;;;;;;9.17;8.27;;;14.40;99.90;;;;;;10413458;28;20224;-79
2022/10/10 00:40:29;;;;;;;8.97;7.90;;;14.40;99.90;;;;;;10414225;28;20224;-79
2022/10/10 00:45:37;;;;;;;7.83;7.23;;;14.40;99.90;;;;;;10413499;28;20245;-80
2022/10/10 00:50:45;;;;;;;9.03;8.23;;;14.40;99.90;;;;;;10415853;28;20217;-79
2022/10/10 00:55:47;;;;;;;12.00;8.10;;;14.40;99.90;;;;;;10415212;28;20229;-79
2022/10/10 01:00:49;;;;;;;9.03;8.27;;;14.40;99.90;;;;;;10413902;28;20217;-80
2022/10/10 01:05:53;;;;;;;9.40;8.60;;;14.50;99.90;;;;;;10413699;28;20307;-80
2022/10/10 01:11:08;;;;;;;9.90;8.90;;;14.50;99.90;;;;;;10406681;28;20294;-79
2022/10/10 01:16:17;;;;;;;8.37;7.60;;;14.50;99.90;;;;;;10424943;28;20194;-78
2022/10/10 01:21:32;;;;;;;7.87;7.30;;;14.50;99.90;;;;;;10423731;28;20218;-79
2022/10/10 01:26:56;;;;;;;8.37;7.67;;;14.50;99.90;;;;;;10419878;28;20221;-79
2022/10/10 01:32:05;;;;;;;8.23;7.53;;;14.50;99.90;;;;;;10402608;28;20221;-79
2022/10/10 01:37:15;;;;;;;8.13;7.53;;;14.50;99.90;;;;;;10419708;28;20222;-79
2022/10/10 01:42:23;;;;;;;8.37;7.77;;;14.40;99.90;;;;;;10422218;28;20293;-80
2022/10/10 01:47:26;;;;;;;9.40;8.50;;;14.40;99.90;;;;;;10423500;28;20214;-80
2022/10/10 01:52:37;;;;;;;7.97;7.37;;;14.40;99.90;;;;;;10424179;28;20217;-80
2022/10/10 01:57:45;;;;;;;7.90;7.30;;;14.40;99.90;;;;;;10424142;28;20194;-80
2022/10/10 02:02:55;;;;;;;8.33;7.63;;;14.40;99.90;;;;;;10429787;28;20218;-80
2022/10/10 02:08:01;;;;;;;7.40;6.80;;;14.40;99.90;;;;;;10420435;28;20213;-79
2022/10/10 02:13:05;;;;;;;8.53;7.77;;;14.30;99.90;;;;;;10419920;28;20217;-78
2022/10/10 02:18:11;;;;;;;8.37;7.57;;;14.30;99.90;;;;;;10417673;28;20190;-77
2022/10/10 02:23:17;;;;;;;9.23;8.50;;;14.30;99.90;;;;;;10416707;28;20302;-78
2022/10/10 02:28:24;;;;;;;8.30;7.47;;;14.30;99.90;;;;;;10397294;28;20201;-77
2022/10/10 02:33:33;;;;;;;8.27;7.43;;;14.20;99.90;;;;;;10399557;28;20769;-77
2022/10/10 02:38:36;;;;;;;7.93;7.27;;;14.20;99.90;;;;;;10422633;28;20716;-78
2022/10/10 02:43:39;;;;;;;8.37;7.50;;;14.20;99.90;;;;;;10417264;28;20222;-77
2022/10/10 02:48:43;;;;;;;8.20;7.50;;;14.20;99.90;;;;;;10402198;28;20280;-77
2022/10/10 02:53:45;;;;;;;7.30;6.80;;;14.20;99.90;;;;;;10416326;28;20572;-78
2022/10/10 02:58:47;;;;;;;8.43;7.57;;;14.20;99.90;;;;;;10416100;28;20681;-78
2022/10/10 03:03:50;;;;;;;9.20;8.40;;;14.20;99.90;;;;;;10415778;28;20232;-78
2022/10/10 03:08:52;;;;;;;8.33;7.73;;;14.10;99.90;;;;;;10414235;28;20319;-77
2022/10/10 03:13:54;;;;;;;8.67;7.77;;;14.20;99.90;;;;;;10415029;28;20216;-77
2022/10/10 03:18:58;;;;;;;9.33;8.63;;;14.10;99.90;;;;;;10415022;28;20273;-76
2022/10/10 03:24:00;;;;;;;10.50;8.83;;;14.10;99.90;;;;;;10414371;28;20707;-78
2022/10/10 03:29:02;;;;;;;9.87;8.97;;;14.10;99.90;;;;;;10413522;28;20269;-77
2022/10/10 03:34:05;;;;;;;9.50;8.60;;;14.10;99.90;;;;;;10413047;28;20210;-77
2022/10/10 03:39:08;;;;;;;9.90;9.07;;;14.10;99.90;;;;;;10414441;28;20248;-78
2022/10/10 03:44:10;;;;;;;10.70;9.83;;;14.20;99.90;;;;;;10413735;28;20245;-78
2022/10/10 03:49:13;;;;;;;10.67;9.80;;;14.10;99.90;;;;;;10413428;28;20517;-78
2022/10/10 03:54:15;;;;;;;11.80;10.80;;;14.10;99.90;;;;;;10413825;28;20218;-78
2022/10/10 03:59:17;;;;;;;11.43;10.57;;;14.10;99.90;;;;;;10413718;28;20213;-78
2022/10/10 04:04:20;;;;;;;10.43;9.67;;;14.10;99.90;;;;;;10410191;28;20225;-78
2022/10/10 04:09:23;;;;;;;9.10;8.40;;;14.00;99.90;;;;;;10410387;28;20221;-78
2022/10/10 04:14:25;;;;;;;9.60;8.80;;;14.00;99.90;;;;;;10413570;28;20682;-78
2022/10/10 04:19:28;;;;;;;9.13;8.43;;;14.00;99.90;;;;;;10417214;28;20194;-77
2022/10/10 04:24:30;;;;;;;11.07;10.20;;;14.00;99.90;;;;;;10427125;28;20309;-78
2022/10/10 04:29:32;;;;;;;24.17;21.77;;;14.00;99.90;;;;;;10414210;28;20279;-77
2022/10/10 04:34:36;;;;;;;15.10;13.80;;;14.00;99.90;;;;;;10414043;28;20264;-77
2022/10/10 04:39:38;;;;;;;21.17;19.10;;;14.00;99.90;;;;;;10401742;28;20202;-79
2022/10/10 04:44:40;;;;;;;17.17;15.57;;;14.00;99.90;;;;;;10387116;28;20287;-77
2022/10/10 04:49:43;;;;;;;24.13;21.53;;;14.00;99.90;;;;;;10421158;28;20203;-77
2022/10/10 04:54:46;;;;;;;19.70;17.70;;;13.90;99.90;;;;;;10422308;28;20206;-76
2022/10/10 04:59:48;;;;;;;30.77;26.97;;;13.90;99.90;;;;;;10419212;28;20297;-77
2022/10/10 05:04:51;;;;;;;14.60;13.40;;;13.90;99.90;;;;;;10417910;28;20217;-77
2022/10/10 05:09:53;;;;;;;12.37;11.17;;;13.90;99.90;;;;;;10417246;28;20331;-77
2022/10/10 05:14:55;;;;;;;14.03;12.90;;;13.90;99.90;;;;;;10415731;28;20214;-77
2022/10/10 05:19:59;;;;;;;12.47;11.47;;;13.90;99.90;;;;;;10417708;28;20645;-76
2022/10/10 05:25:01;;;;;;;12.00;10.90;;;13.90;99.90;;;;;;10382587;28;20858;-76
2022/10/10 05:30:03;;;;;;;14.80;13.30;;;13.90;99.90;;;;;;10361986;28;20202;-77
2022/10/10 05:35:08;;;;;;;16.07;12.10;;;13.80;99.90;;;;;;10416940;28;20301;-76
2022/10/10 05:40:10;;;;;;;12.80;11.80;;;13.80;99.90;;;;;;10415486;28;20208;-77
2022/10/10 05:45:13;;;;;;;15.23;13.93;;;13.90;99.90;;;;;;10417431;28;20249;-76
2022/10/10 05:50:27;;;;;;;13.10;11.90;;;13.90;99.90;;;;;;10416158;28;20225;-76
2022/10/10 05:55:29;;;;;;;11.40;10.50;;;13.90;99.90;;;;;;10419135;28;20213;-77
2022/10/10 06:00:32;;;;;;;10.97;10.10;;;13.90;99.90;;;;;;10415341;28;20732;-77
2022/10/10 06:05:37;;;;;;;11.20;10.40;;;13.90;99.90;;;;;;10494361;23;20231;-80
2022/10/10 06:10:41;;;;;;;11.33;10.53;;;14.00;99.90;;;;;;10498390;28;20200;-81
2022/10/10 06:15:44;;;;;;;11.93;11.13;;;14.00;99.90;;;;;;10489882;28;20212;-80
2022/10/10 06:20:47;;;;;;;12.47;11.57;;;14.10;99.90;;;;;;10516669;28;20193;-80
2022/10/10 06:25:52;;;;;;;13.73;12.63;;;14.20;99.90;;;;;;10491837;28;20227;-80
2022/10/10 06:30:59;;;;;;;13.73;12.47;;;14.30;99.90;;;;;;10499375;28;20198;-80
2022/10/10 06:36:05;;;;;;;16.30;14.60;;;14.40;99.90;;;;;;10489402;28;20216;-81
2022/10/10 06:41:07;;;;;;;22.43;18.50;;;14.50;99.90;;;;;;10516418;28;20220;-80
2022/10/10 06:46:10;;;;;;;15.60;13.87;;;14.60;99.90;;;;;;10469327;28;20238;-80
2022/10/10 06:51:16;;;;;;;14.00;12.80;;;14.70;99.90;;;;;;10500113;28;20197;-80
2022/10/10 06:56:20;;;;;;;21.70;18.63;;;14.70;99.90;;;;;;10493175;28;20747;-80
2022/10/10 07:01:28;;;;;;;14.10;12.87;;;14.70;99.90;;;;;;10429330;28;20201;-81
2022/10/10 07:06:31;;;;;;;14.50;13.30;;;14.70;99.90;;;;;;10419072;28;20275;-80
2022/10/10 07:11:34;;;;;;;15.17;13.63;;;14.80;99.90;;;;;;10427818;28;20596;-81
2022/10/10 07:16:36;;;;;;;12.80;11.60;;;14.90;99.90;;;;;;10428566;28;20598;-81
2022/10/10 07:21:42;;;;;;;13.90;11.80;;;15.00;99.90;;;;;;10425342;28;20200;-81
2022/10/10 07:26:44;;;;;;;13.00;11.90;;;15.10;99.90;;;;;;10424365;28;20248;-80
2022/10/10 07:31:46;;;;;;;12.70;11.40;;;15.20;99.90;;;;;;10427285;28;20222;-80
2022/10/10 07:36:50;;;;;;;12.60;11.37;;;15.30;99.90;;;;;;10428100;28;20621;-79
2022/10/10 07:41:52;;;;;;;14.20;12.83;;;15.50;99.90;;;;;;10436558;28;20301;-81
2022/10/10 07:46:57;;;;;;;13.97;12.57;;;15.60;99.90;;;;;;10428733;28;20216;-81
2022/10/10 07:52:01;;;;;;;12.70;11.40;;;15.70;99.90;;;;;;10419010;28;20348;-80
2022/10/10 07:57:03;;;;;;;11.17;10.20;;;15.80;99.90;;;;;;10447223;28;20196;-78
2022/10/10 08:02:06;;;;;;;13.77;12.37;;;15.90;99.90;;;;;;10429389;28;20292;-78
2022/10/10 08:07:09;;;;;;;12.90;11.70;;;16.00;99.90;;;;;;10430907;28;20220;-80
2022/10/10 08:12:11;;;;;;;12.20;11.23;;;16.10;99.90;;;;;;10436189;28;20213;-81
2022/10/10 08:17:19;;;;;;;12.93;11.23;;;16.30;99.90;;;;;;10408861;28;20189;-79
2022/10/10 08:22:22;;;;;;;12.80;11.47;;;16.40;99.90;;;;;;10420705;28;20217;-80
2022/10/10 08:27:24;;;;;;;10.77;9.87;;;16.50;99.90;;;;;;10435061;28;20201;-80
2022/10/10 08:32:26;;;;;;;10.70;9.80;;;16.60;99.90;;;;;;10439032;28;20213;-80
2022/10/10 08:37:30;;;;;;;14.43;13.13;;;16.70;99.90;;;;;;10435145;28;20189;-80
2022/10/10 08:42:38;;;;;;;12.60;11.27;;;16.70;99.90;;;;;;10498854;28;20262;-81
2022/10/10 08:47:50;;;;;;;11.00;9.10;;;16.70;99.90;;;;;;10453546;28;20251;-80
2022/10/10 08:52:58;;;;;;;9.60;8.70;;;16.80;99.90;;;;;;10497787;28;20237;-80
2022/10/10 08:58:12;;;;;;;9.20;8.40;;;16.90;99.90;;;;;;10423514;28;20637;-79
2022/10/10 09:03:30;;;;;;;8.07;7.47;;;17.10;99.90;;;;;;10475075;28;20238;-80
2022/10/10 09:08:52;;;;;;;8.80;8.10;;;17.30;99.90;;;;;;10463556;28;20248;-80
2022/10/10 09:14:07;;;;;;;8.53;7.90;;;17.40;99.90;;;;;;10431924;28;20236;-82
2022/10/10 09:19:31;;;;;;;8.60;7.77;;;17.60;99.90;;;;;;10492273;28;20169;-81
2022/10/10 09:24:40;;;;;;;8.50;7.60;;;17.60;99.90;;;;;;10461775;28;20277;-80
2022/10/10 09:29:48;;;;;;;8.03;7.50;;;17.70;99.90;;;;;;10448614;28;20189;-79
2022/10/10 09:34:54;;;;;;;7.33;6.63;;;17.80;99.90;;;;;;10464511;28;20267;-79
2022/10/10 09:40:01;;;;;;;6.47;5.93;;;17.90;99.90;;;;;;10485989;28;20209;-79
2022/10/10 09:45:12;;;;;;;6.63;6.00;;;18.00;99.90;;;;;;10487226;28;20211;-79
2022/10/10 09:50:16;;;;;;;5.97;5.57;;;17.90;99.90;;;;;;10469384;28;20185;-80
2022/10/10 09:55:27;;;;;;;6.63;5.90;;;17.70;99.90;;;;;;10445955;28;20700;-79
2022/10/10 10:00:35;;;;;;;7.03;6.47;;;17.80;99.90;;;;;;10496108;28;20250;-79
2022/10/10 10:05:37;;;;;;;6.40;5.80;;;17.90;99.90;;;;;;10475965;28;20221;-80
2022/10/10 10:10:51;;;;;;;6.70;6.20;;;18.00;99.90;;;;;;10492406;28;20279;-80
2022/10/10 10:16:00;;;;;;;7.57;6.93;;;18.30;99.90;;;;;;10454365;28;20700;-79
2022/10/10 10:21:13;;;;;;;6.60;6.17;;;18.50;99.90;;;;;;10480718;28;20185;-80
2022/10/10 10:26:20;;;;;;;5.80;5.50;;;18.70;99.90;;;;;;10480946;28;20581;-80
2022/10/10 10:31:53;;;;;;;6.00;5.50;;;18.90;99.90;;;;;;10462611;28;20196;-80
2022/10/10 10:37:05;;;;;;;5.20;4.77;;;19.00;99.90;;;;;;10464619;28;20194;-80
2022/10/10 10:42:25;;;;;;;6.03;5.63;;;19.20;99.90;;;;;;10478427;28;20217;-81
2022/10/10 10:47:38;;;;;;;6.33;5.47;;;19.40;99.90;;;;;;10449086;28;20252;-80
2022/10/10 10:52:56;;;;;;;6.37;5.87;;;19.40;99.90;;;;;;10470834;28;20224;-80
2022/10/10 10:58:21;;;;;;;5.90;5.50;;;19.50;99.90;;;;;;10452065;28;20196;-80
2022/10/10 11:03:35;;;;;;;5.80;5.47;;;19.60;99.90;;;;;;10473232;28;20212;-80
2022/10/10 11:09:12;;;;;;;6.57;5.97;;;19.60;99.90;;;;;;10486115;28;20704;-80
2022/10/10 11:14:37;;;;;;;9.13;6.50;;;19.30;99.90;;;;;;10484605;28;20215;-80
2022/10/10 11:19:44;;;;;;;6.17;5.67;;;19.00;99.90;;;;;;10463848;28;20205;-80
2022/10/10 11:24:51;;;;;;;6.43;5.90;;;18.80;99.90;;;;;;10500027;28;20235;-80
2022/10/10 11:30:07;;;;;;;6.27;5.77;;;18.60;99.90;;;;;;10480143;28;20220;-80
2022/10/10 11:35:21;;;;;;;9.83;6.80;;;18.40;99.90;;;;;;10476949;28;20590;-80
2022/10/10 11:40:32;;;;;;;6.60;5.97;;;18.30;99.90;;;;;;10505411;28;20219;-80
2022/10/10 11:45:45;;;;;;;6.27;5.73;;;18.20;99.90;;;;;;10466129;28;20236;-80
2022/10/10 11:50:53;;;;;;;7.40;6.10;;;18.10;99.90;;;;;;10460971;28;20204;-81
2022/10/10 11:56:00;;;;;;;7.17;5.40;;;18.00;99.90;;;;;;10451216;28;20263;-80
2022/10/10 12:01:12;;;;;;;10.57;5.67;;;18.00;99.90;;;;;;10484591;28;20204;-80
2022/10/10 12:06:21;;;;;;;6.87;5.00;;;17.90;99.90;;;;;;10479765;22;20717;-81
2022/10/10 12:11:29;;;;;;;11.30;5.20;;;17.80;99.90;;;;;;10415132;28;20197;-80
2022/10/10 12:16:36;;;;;;;11.40;6.53;;;17.80;99.90;;;;;;10410437;28;20246;-80
2022/10/10 12:21:54;;;;;;;10.83;7.43;;;17.80;99.90;;;;;;10442775;28;20654;-80
2022/10/10 12:27:25;;;;;;;8.73;7.20;;;17.80;99.90;;;;;;10422879;28;20665;-79
2022/10/10 12:32:40;;;;;;;7.00;6.50;;;17.80;99.90;;;;;;10412091;28;20222;-79
2022/10/10 12:38:22;;;;;;;8.63;6.27;;;18.00;99.90;;;;;;10452660;28;20200;-78
2022/10/10 12:43:36;;;;;;;9.33;6.53;;;18.30;99.90;;;;;;10407409;28;20267;-79
2022/10/10 12:48:39;;;;;;;8.63;5.50;;;18.50;99.90;;;;;;10417910;28;20250;-80
2022/10/10 12:53:47;;;;;;;10.63;6.10;;;18.70;99.90;;;;;;10457901;28;20240;-80
2022/10/10 12:58:50;;;;;;;13.43;5.90;;;18.80;99.90;;;;;;10420817;28;20190;-79
2022/10/10 13:03:55;;;;;;;7.13;6.50;;;19.00;99.90;;;;;;10464476;28;20746;-79
2022/10/10 13:08:58;;;;;;;8.90;6.57;;;19.10;99.90;;;;;;10427892;28;20514;-79
2022/10/10 13:14:08;;;;;;;6.27;5.67;;;19.10;99.90;;;;;;10448014;28;20707;-80
2022/10/10 13:19:18;;;;;;;8.53;6.13;;;19.20;99.90;;;;;;10411915;28;20198;-80
2022/10/10 13:24:29;;;;;;;8.63;6.90;;;19.30;99.90;;;;;;10459735;28;20216;-80
2022/10/10 13:29:33;;;;;;;10.27;6.87;;;19.30;99.90;;;;;;10406797;28;20213;-80
2022/10/10 13:34:39;;;;;;;9.73;6.47;;;19.30;99.90;;;;;;10436396;28;20560;-78
2022/10/10 13:39:41;;;;;;;7.43;6.33;;;19.30;99.90;;;;;;10390218;28;20190;-79
2022/10/10 13:44:48;;;;;;;7.77;7.03;;;19.30;99.90;;;;;;10418777;28;20263;-79
2022/10/10 13:49:57;;;;;;;8.40;7.53;;;19.20;99.90;;;;;;10439127;28;20190;-80
2022/10/10 13:55:14;;;;;;;9.17;6.60;;;19.00;99.90;;;;;;10424461;28;20217;-79
2022/10/10 14:00:20;;;;;;;20.47;18.53;;;18.80;99.90;;;;;;10437012;28;20198;-79
2022/10/10 14:05:29;;;;;;;12.87;8.30;;;18.80;99.90;;;;;;10425033;28;20708;-80
2022/10/10 14:10:35;;;;;;;8.10;6.97;;;18.70;99.90;;;;;;10435697;28;20194;-79
2022/10/10 14:15:45;;;;;;;7.40;6.70;;;18.70;99.90;;;;;;10424347;28;20223;-80
2022/10/10 14:20:49;;;;;;;7.67;5.90;;;18.60;99.90;;;;;;10452278;28;20194;-80
2022/10/10 14:25:52;;;;;;;6.60;5.97;;;18.60;99.90;;;;;;10408522;28;20215;-79
2022/10/10 14:30:54;;;;;;;11.33;5.83;;;18.50;99.90;;;;;;10435224;28;20198;-80
2022/10/10 14:35:59;;;;;;;8.03;7.23;;;18.40;99.90;;;;;;10425802;28;20692;-80
2022/10/10 14:41:01;;;;;;;7.07;6.13;;;18.40;99.90;;;;;;10452807;28;20516;-79
2022/10/10 14:46:03;;;;;;;12.40;6.83;;;18.40;99.90;;;;;;10453326;28;20301;-79
2022/10/10 14:51:10;;;;;;;8.07;7.13;;;18.40;99.90;;;;;;10407839;28;20225;-79
2022/10/10 14:56:12;;;;;;;15.63;8.30;;;18.40;99.90;;;;;;10453433;28;20209;-79
2022/10/10 15:01:14;;;;;;;8.73;7.83;;;18.40;99.90;;;;;;10431376;28;20193;-79
2022/10/10 15:06:18;;;;;;;7.70;6.90;;;18.40;99.90;;;;;;10460653;28;20781;-79
2022/10/10 15:11:21;;;;;;;9.30;7.43;;;18.40;99.90;;;;;;10434054;28;20197;-79
2022/10/10 15:16:23;;;;;;;15.00;7.60;;;18.40;99.90;;;;;;10440401;28;20292;-79
2022/10/10 15:21:27;;;;;;;11.50;6.70;;;18.50;99.90;;;;;;10405667;28;20193;-79
2022/10/10 15:26:29;;;;;;;12.30;6.80;;;18.50;99.90;;;;;;10437533;28;20518;-79
2022/10/10 15:31:31;;;;;;;8.23;6.50;;;18.60;99.90;;;;;;10404767;28;20251;-79
2022/10/10 15:36:35;;;;;;;13.20;7.20;;;18.70;99.90;;;;;;10435632;28;20214;-78
2022/10/10 15:41:37;;;;;;;8.00;6.30;;;18.70;99.90;;;;;;10403183;28;20190;-79
2022/10/10 15:46:39;;;;;;;10.10;6.93;;;18.70;99.90;;;;;;10442860;28;20245;-79
2022/10/10 15:51:45;;;;;;;9.73;6.43;;;18.70;99.90;;;;;;10404331;28;20269;-79
2022/10/10 15:56:47;;;;;;;8.20;7.30;;;18.70;99.90;;;;;;10441433;28;20192;-79
2022/10/10 16:01:49;;;;;;;13.10;7.73;;;18.60;99.90;;;;;;10405894;28;20281;-80
2022/10/10 16:06:53;;;;;;;6.40;5.33;;;18.60;99.90;;;;;;10405432;28;20727;-80
2022/10/10 16:11:55;;;;;;;11.43;7.40;;;18.50;99.90;;;;;;10408340;28;20725;-80
2022/10/10 16:16:58;;;;;;;11.30;7.83;;;18.40;99.90;;;;;;10384161;28;20264;-80
2022/10/10 16:22:02;;;;;;;14.63;7.60;;;18.30;99.90;;;;;;10358465;28;20230;-80
2022/10/10 16:27:04;;;;;;;16.20;8.47;;;18.30;99.90;;;;;;10448522;28;20677;-79
2022/10/10 16:32:06;;;;;;;9.50;8.20;;;18.20;99.90;;;;;;10418402;28;20237;-80
2022/10/10 16:37:09;;;;;;;14.63;11.53;;;18.10;99.90;;;;;;10441968;28;20213;-81
2022/10/10 16:42:12;;;;;;;8.43;6.83;;;18.00;99.90;;;;;;10410010;28;20275;-80
2022/10/10 16:47:14;;;;;;;14.40;7.33;;;18.00;99.90;;;;;;10361339;28;20226;-80
2022/10/10 16:52:17;;;;;;;8.00;7.07;;;18.00;99.90;;;;;;10451873;28;20305;-79
2022/10/10 16:57:20;;;;;;;14.17;11.73;;;17.90;99.90;;;;;;10417710;28;20208;-81
2022/10/10 17:02:23;;;;;;;21.87;15.40;;;17.80;99.90;;;;;;10410785;28;20684;-80
2022/10/10 17:07:27;;;;;;;16.83;12.47;;;17.70;99.90;;;;;;10418476;28;20213;-81
2022/10/10 17:12:29;;;;;;;11.60;9.73;;;17.60;99.90;;;;;;10442639;28;20219;-81
2022/10/10 17:17:31;;;;;;;9.47;8.57;;;17.60;99.90;;;;;;10401834;28;20194;-81
2022/10/10 17:22:34;;;;;;;17.67;10.50;;;17.50;99.90;;;;;;10457973;28;20305;-81
2022/10/10 17:27:40;;;;;;;9.20;8.37;;;17.40;99.90;;;;;;10386731;28;20214;-78
2022/10/10 17:32:42;;;;;;;11.70;8.20;;;17.30;99.90;;;;;;10444175;28;20922;-80
2022/10/10 17:37:46;;;;;;;13.70;7.27;;;17.20;99.90;;;;;;10414461;28;20233;-81
2022/10/10 17:42:48;;;;;;;11.23;7.20;;;17.20;99.90;;;;;;10408822;28;20300;-81
2022/10/10 17:48:40;;;;;;;;;;;;;;;;;;;;;
2022/10/10 18:00:20;;;;;;;11.80;10.70;;;17.10;99.90;;;;;;10317309;28;20202;-80
2022/10/10 18:05:22;;;;;;;42.97;29.77;;;17.10;99.90;;;;;;10341423;23;20326;-78
2022/10/10 18:10:25;;;;;;;33.93;24.80;;;17.20;99.90;;;;;;10321945;28;20306;-77
2022/10/10 18:15:28;;;;;;;19.73;12.20;;;17.20;99.90;;;;;;10292582;28;20211;-75
2022/10/10 18:20:30;;;;;;;10.27;8.97;;;17.10;99.90;;;;;;10293828;28;20207;-77
2022/10/10 18:25:34;;;;;;;10.60;9.40;;;17.20;99.90;;;;;;10301614;28;20327;-76
2022/10/10 18:30:40;;;;;;;13.73;12.43;;;17.20;99.90;;;;;;10302697;28;20238;-76
2022/10/10 18:35:42;;;;;;;14.20;12.87;;;17.20;99.90;;;;;;10287818;28;20227;-77
2022/10/10 18:40:45;;;;;;;16.27;11.73;;;17.00;99.90;;;;;;10299381;28;20204;-77
2022/10/10 18:45:48;;;;;;;12.27;11.03;;;16.70;99.90;;;;;;10310068;28;20574;-76
2022/10/10 18:50:50;;;;;;;14.70;13.60;;;16.60;99.90;;;;;;10308253;28;20212;-75
2022/10/10 18:55:56;;;;;;;17.90;16.30;;;16.50;99.90;;;;;;10290825;28;20226;-76
2022/10/10 19:00:59;;;;;;;13.87;12.77;;;16.40;99.90;;;;;;10299482;28;20202;-76
2022/10/10 19:06:02;;;;;;;14.43;13.20;;;16.30;99.90;;;;;;10281335;28;20291;-76
2022/10/10 19:11:07;;;;;;;11.77;10.77;;;16.20;99.90;;;;;;10292157;28;20667;-76
2022/10/10 19:16:09;;;;;;;11.83;11.13;;;16.10;99.90;;;;;;10292681;28;20291;-78
2022/10/10 19:21:11;;;;;;;14.33;11.23;;;16.10;99.90;;;;;;10294582;28;20202;-78
2022/10/10 19:26:15;;;;;;;13.30;12.20;;;16.00;99.90;;;;;;10296434;28;20223;-78
2022/10/10 19:31:19;;;;;;;17.80;11.97;;;15.90;99.90;;;;;;10293450;28;20200;-76
2022/10/10 19:36:21;;;;;;;12.53;11.80;;;15.80;99.90;;;;;;10296444;28;20707;-77
2022/10/10 19:41:24;;;;;;;17.77;16.10;;;15.70;99.90;;;;;;10289797;28;20216;-78
2022/10/10 19:46:26;;;;;;;16.83;15.43;;;15.70;99.90;;;;;;10292510;28;20678;-78
2022/10/10 19:51:29;;;;;;;17.07;15.50;;;15.70;99.90;;;;;;10280361;28;20199;-76
2022/10/10 19:56:36;;;;;;;16.93;15.50;;;15.80;99.90;;;;;;10312204;28;20231;-77
2022/10/10 20:01:38;;;;;;;17.77;16.17;;;15.90;99.90;;;;;;10281487;28;20202;-77
2022/10/10 20:06:42;;;;;;;18.70;17.10;;;15.80;99.90;;;;;;10318177;28;20315;-78
2022/10/10 20:11:45;;;;;;;21.83;17.73;;;15.90;99.90;;;;;;10277872;28;20679;-77
2022/10/10 20:16:47;;;;;;;20.27;17.60;;;15.90;99.90;;;;;;10291362;28;20283;-77
2022/10/10 20:21:49;;;;;;;19.53;17.50;;;15.90;99.90;;;;;;10298126;28;20199;-78
2022/10/10 20:26:53;;;;;;;60.57;53.20;;;15.80;99.90;;;;;;10333446;28;20239;-77
2022/10/10 20:31:56;;;;;;;21.60;18.40;;;15.80;99.90;;;;;;10300777;28;20249;-77
2022/10/10 20:36:58;;;;;;;18.70;17.10;;;15.80;99.90;;;;;;10321677;28;20192;-77
2022/10/10 20:42:02;;;;;;;18.90;16.90;;;15.80;99.90;;;;;;10294816;28;20250;-78
2022/10/10 20:47:05;;;;;;;17.33;16.10;;;15.80;99.90;;;;;;10299103;28;20757;-78
2022/10/10 20:52:07;;;;;;;19.00;17.30;;;15.80;99.90;;;;;;10326209;28;20207;-77
2022/10/10 20:57:11;;;;;;;19.77;17.90;;;15.80;99.90;;;;;;10298375;28;20604;-78
2022/10/10 21:02:13;;;;;;;19.70;18.10;;;15.80;99.90;;;;;;10324393;28;20198;-76
2022/10/10 21:07:15;;;;;;;19.97;18.27;;;15.80;99.90;;;;;;10295807;28;20231;-76
2022/10/10 21:12:18;;;;;;;18.30;16.80;;;15.80;99.90;;;;;;10311975;28;20591;-78
2022/10/10 21:17:20;;;;;;;17.00;15.77;;;15.90;99.90;;;;;;10298034;28;20196;-78
2022/10/10 21:22:22;;;;;;;19.30;17.30;;;15.80;99.90;;;;;;10302566;28;20220;-78
2022/10/10 21:27:25;;;;;;;17.30;15.80;;;15.90;99.90;;;;;;10307969;28;20216;-78
2022/10/10 21:32:27;;;;;;;19.37;16.40;;;15.80;99.90;;;;;;10325224;28;20221;-78
2022/10/10 21:37:31;;;;;;;17.87;16.57;;;15.80;99.90;;;;;;10313101;28;20286;-76
2022/10/10 21:42:34;;;;;;;26.43;20.23;;;15.70;99.90;;;;;;10306568;28;20237;-76
2022/10/10 21:47:36;;;;;;;46.27;25.93;;;15.70;99.90;;;;;;10300628;28;20216;-78
2022/10/10 21:52:38;;;;;;;18.30;16.77;;;15.70;99.90;;;;;;10289728;28;20326;-78
2022/10/10 21:57:42;;;;;;;17.07;15.87;;;15.70;99.90;;;;;;10295302;28;20212;-78
2022/10/10 22:02:45;;;;;;;18.73;17.10;;;15.70;99.90;;;;;;10295514;28;20307;-74
2022/10/10 22:07:47;;;;;;;25.47;18.47;;;15.70;99.90;;;;;;10307536;28;20220;-78
2022/10/10 22:12:50;;;;;;;23.67;19.87;;;15.70;99.90;;;;;;10294514;28;20735;-77
2022/10/10 22:17:52;;;;;;;18.20;16.47;;;15.70;99.90;;;;;;10291730;28;20222;-76
2022/10/10 22:22:54;;;;;;;18.07;16.53;;;15.70;99.90;;;;;;10293802;28;20230;-77
2022/10/10 22:27:59;;;;;;;18.73;17.03;;;15.80;99.90;;;;;;10288138;28;20630;-77
2022/10/10 22:33:01;;;;;;;21.13;16.33;;;15.80;99.90;;;;;;10332180;28;20215;-76
2022/10/10 22:38:03;;;;;;;17.93;16.53;;;15.90;99.90;;;;;;10308826;28;20207;-76
2022/10/10 22:43:07;;;;;;;22.80;20.63;;;15.80;99.90;;;;;;10321906;28;20257;-76
2022/10/10 22:48:09;;;;;;;19.83;18.23;;;15.80;99.90;;;;;;10293600;28;20258;-77
2022/10/10 22:53:11;;;;;;;18.67;17.17;;;15.90;99.90;;;;;;10331976;28;20243;-77
2022/10/10 22:58:14;;;;;;;18.30;16.90;;;15.90;99.90;;;;;;10291694;28;20657;-77
2022/10/10 23:03:16;;;;;;;18.77;17.37;;;15.90;99.90;;;;;;10329156;28;20722;-76
2022/10/10 23:08:18;;;;;;;18.90;17.00;;;15.90;99.90;;;;;;10293300;28;20215;-76
2022/10/10 23:13:21;;;;;;;18.13;16.93;;;16.00;99.90;;;;;;10330921;28;20309;-76
2022/10/10 23:18:24;;;;;;;19.77;18.27;;;16.00;99.90;;;;;;10296794;28;20219;-77
2022/10/10 23:23:26;;;;;;;18.57;16.87;;;16.00;99.90;;;;;;10331817;28;20215;-77
2022/10/10 23:28:29;;;;;;;22.07;17.80;;;16.00;99.90;;;;;;10298757;28;20311;-77
2022/10/10 23:33:31;;;;;;;18.53;16.83;;;16.00;99.90;;;;;;10323522;28;20222;-77
2022/10/10 23:38:34;;;;;;;19.67;17.90;;;16.00;99.90;;;;;;10293525;28;20350;-76
2022/10/10 23:43:37;;;;;;;18.57;17.20;;;15.90;99.90;;;;;;10313620;28;20299;-79
2022/10/10 23:48:39;;;;;;;18.83;16.93;;;15.80;99.90;;;;;;10327589;28;20234;-77
2022/10/10 23:53:41;;;;;;;18.47;16.50;;;15.80;99.90;;;;;;10295377;28;20220;-77
2022/10/10 23:58:45;;;;;;;18.30;16.40;;;15.80;99.90;;;;;;10324843;28;20206;-77
